Time;durP1;ratioP1;P1;durP2;ratioP2;P2;SDS_P1;SDS_P2;PMS_P1;PMS_P2;Temp;Humidity;BMP_temperature;BMP_pressure;BME280_temperature;BME280_humidity;BME280_pressure;Samples;Min_cycle;Max_cycle;Signal;HPM_P1;HPM_P2
2023/04/25 00:01:28;;;;;;;7.50;6.60;;;;;;;;;;107691;285;44321;-28
2023/04/25 00:04:02;;;;;;;7.30;6.60;;;;;;;;;;107603;286;45125;-28
2023/04/25 00:06:38;;;;;;;7.10;6.40;;;;;;;;;;107704;285;39868;-28
2023/04/25 00:09:15;;;;;;;7.30;6.60;;;;;;;;;;107711;285;43040;-28
2023/04/25 00:11:49;;;;;;;7.70;6.90;;;;;;;;;;107717;285;44344;-28
2023/04/25 00:14:27;;;;;;;7.40;6.70;;;;;;;;;;107715;285;45090;-28
2023/04/25 00:17:01;;;;;;;7.30;6.60;;;;;;;;;;107732;283;39738;-28
2023/04/25 00:19:37;;;;;;;7.50;6.80;;;;;;;;;;107724;285;44378;-28
2023/04/25 00:22:13;;;;;;;7.10;6.40;;;;;;;;;;107643;285;42610;-28
2023/04/25 00:24:47;;;;;;;7.50;6.80;;;;;;;;;;107740;285;38796;-28
2023/04/25 00:27:21;;;;;;;7.00;6.30;;;;;;;;;;107725;285;40188;-28
2023/04/25 00:29:56;;;;;;;7.10;6.40;;;;;;;;;;107760;285;43032;-28
2023/04/25 00:32:30;;;;;;;7.00;6.30;;;;;;;;;;107691;285;42302;-28
2023/04/25 00:35:06;;;;;;;7.20;6.50;;;;;;;;;;107725;283;38707;-28
2023/04/25 00:37:42;;;;;;;7.00;6.30;;;;;;;;;;107751;285;39620;-28
2023/04/25 00:40:19;;;;;;;7.30;6.60;;;;;;;;;;107693;277;42912;-28
2023/04/25 00:42:54;;;;;;;7.10;6.40;;;;;;;;;;107667;284;42163;-29
2023/04/25 00:45:32;;;;;;;6.90;6.20;;;;;;;;;;107694;285;38628;-28
2023/04/25 00:48:08;;;;;;;7.20;6.50;;;;;;;;;;107724;285;39445;-28
2023/04/25 00:50:54;;;;;;;7.40;6.60;;;;;;;;;;107751;285;42661;-28
2023/04/25 00:53:33;;;;;;;7.30;6.60;;;;;;;;;;107648;285;42265;-28
2023/04/25 00:56:08;;;;;;;7.40;6.60;;;;;;;;;;107665;285;38551;-28
2023/04/25 00:58:43;;;;;;;7.00;6.30;;;;;;;;;;107525;285;175534;-28
2023/04/25 01:01:18;;;;;;;7.30;6.60;;;;;;;;;;107708;285;44119;-28
2023/04/25 01:03:56;;;;;;;7.00;6.30;;;;;;;;;;107645;285;42128;-28
2023/04/25 01:06:30;;;;;;;6.90;6.20;;;;;;;;;;107683;285;38777;-28
2023/04/25 01:09:09;;;;;;;6.90;6.20;;;;;;;;;;107684;282;40852;-28
2023/04/25 01:11:44;;;;;;;6.90;6.20;;;;;;;;;;107674;283;42843;-28
2023/04/25 01:14:22;;;;;;;7.00;6.30;;;;;;;;;;107651;285;42179;-28
2023/04/25 01:16:58;;;;;;;6.90;6.20;;;;;;;;;;107676;285;38788;-28
2023/04/25 01:19:33;;;;;;;7.10;6.40;;;;;;;;;;107706;285;41041;-28
2023/04/25 01:22:10;;;;;;;7.20;6.50;;;;;;;;;;107628;285;44075;-28
2023/04/25 01:24:44;;;;;;;6.90;6.20;;;;;;;;;;107608;283;41897;-29
2023/04/25 01:27:20;;;;;;;6.90;6.20;;;;;;;;;;107632;285;39918;-28
2023/04/25 01:29:56;;;;;;;7.00;6.20;;;;;;;;;;107653;283;41020;-28
2023/04/25 01:32:37;;;;;;;6.90;6.30;;;;;;;;;;107656;285;44209;-28
2023/04/25 01:35:14;;;;;;;7.00;6.30;;;;;;;;;;107599;283;42154;-28
2023/04/25 01:37:49;;;;;;;6.50;5.80;;;;;;;;;;107668;286;38783;-28
2023/04/25 01:40:26;;;;;;;7.10;6.40;;;;;;;;;;107086;283;621663;-28
2023/04/25 01:43:02;;;;;;;6.90;6.20;;;;;;;;;;107567;284;44369;-28
2023/04/25 01:45:39;;;;;;;7.10;6.40;;;;;;;;;;107600;285;42945;-28
2023/04/25 01:48:16;;;;;;;6.90;6.20;;;;;;;;;;107661;283;39939;-28
2023/04/25 01:50:51;;;;;;;7.10;6.40;;;;;;;;;;107663;285;40762;-29
2023/04/25 01:53:27;;;;;;;6.80;6.10;;;;;;;;;;107629;285;43228;-28
2023/04/25 01:56:04;;;;;;;6.80;6.10;;;;;;;;;;107609;277;43238;-28
2023/04/25 01:58:43;;;;;;;6.80;6.10;;;;;;;;;;107656;283;38768;-28
2023/04/25 02:01:18;;;;;;;7.10;6.40;;;;;;;;;;107662;277;40786;-28
2023/04/25 02:03:55;;;;;;;6.90;6.20;;;;;;;;;;107626;283;44224;-28
2023/04/25 02:06:32;;;;;;;6.90;6.20;;;;;;;;;;107616;285;49231;-28
2023/04/25 02:09:09;;;;;;;6.70;6.00;;;;;;;;;;107642;285;38594;-28
2023/04/25 02:11:45;;;;;;;7.00;6.30;;;;;;;;;;107670;285;39767;-28
2023/04/25 02:14:21;;;;;;;6.60;6.00;;;;;;;;;;107628;285;42934;-29
2023/04/25 02:16:56;;;;;;;6.70;5.80;;;;;;;;;;107679;283;48345;-29
2023/04/25 02:19:31;;;;;;;6.60;5.90;;;;;;;;;;107659;283;38798;-28
2023/04/25 02:22:05;;;;;;;6.70;6.00;;;;;;;;;;107681;285;39730;-28
2023/04/25 02:24:41;;;;;;;6.70;6.00;;;;;;;;;;107619;285;44016;-28
2023/04/25 02:27:16;;;;;;;6.70;6.00;;;;;;;;;;107670;285;48543;-28
2023/04/25 02:29:53;;;;;;;6.60;5.90;;;;;;;;;;107676;285;38547;-29
2023/04/25 02:32:30;;;;;;;6.70;6.00;;;;;;;;;;107593;285;40224;-28
2023/04/25 02:35:05;;;;;;;6.10;5.50;;;;;;;;;;107630;285;42973;-28
2023/04/25 02:37:42;;;;;;;6.60;5.90;;;;;;;;;;107624;283;42252;-28
2023/04/25 02:40:20;;;;;;;6.60;5.80;;;;;;;;;;107638;286;38552;-28
2023/04/25 02:42:55;;;;;;;6.80;6.10;;;;;;;;;;107632;285;39742;-28
2023/04/25 02:45:33;;;;;;;6.30;5.70;;;;;;;;;;107613;285;42902;-28
2023/04/25 02:48:08;;;;;;;6.50;5.90;;;;;;;;;;107650;283;41858;-28
2023/04/25 02:50:44;;;;;;;6.60;5.80;;;;;;;;;;107658;285;38831;-28
2023/04/25 02:53:18;;;;;;;6.30;5.70;;;;;;;;;;107663;285;39865;-28
2023/04/25 02:55:58;;;;;;;6.30;5.60;;;;;;;;;;107616;285;43048;-28
2023/04/25 02:58:32;;;;;;;6.40;5.70;;;;;;;;;;107649;285;42257;-28
2023/04/25 03:01:08;;;;;;;6.50;5.50;;;;;;;;;;107630;283;38961;-29
2023/04/25 03:03:42;;;;;;;6.10;5.50;;;;;;;;;;107650;277;39732;-28
2023/04/25 03:06:18;;;;;;;6.10;5.40;;;;;;;;;;107610;285;42918;-28
2023/04/25 03:08:52;;;;;;;6.20;5.50;;;;;;;;;;107645;285;42278;-28
2023/04/25 03:11:27;;;;;;;6.50;5.60;;;;;;;;;;107657;285;38759;-29
2023/04/25 03:14:04;;;;;;;5.90;5.30;;;;;;;;;;107700;285;39700;-28
2023/04/25 03:16:39;;;;;;;6.30;5.40;;;;;;;;;;107629;285;44089;-28
2023/04/25 03:19:17;;;;;;;6.10;5.40;;;;;;;;;;107668;277;42199;-29
2023/04/25 03:21:53;;;;;;;6.70;5.30;;;;;;;;;;107667;283;38862;-29
2023/04/25 03:24:28;;;;;;;6.10;5.30;;;;;;;;;;107665;285;39769;-29
2023/04/25 03:27:01;;;;;;;6.10;5.50;;;;;;;;;;107634;277;42958;-29
2023/04/25 03:29:35;;;;;;;6.30;5.20;;;;;;;;;;107665;285;42279;-29
2023/04/25 03:32:09;;;;;;;6.20;4.90;;;;;;;;;;107664;281;39214;-29
2023/04/25 03:34:44;;;;;;;6.20;5.20;;;;;;;;;;107635;282;39749;-29
2023/04/25 03:37:20;;;;;;;5.90;5.00;;;;;;;;;;107618;285;43076;-29
2023/04/25 03:39:56;;;;;;;6.10;4.90;;;;;;;;;;107653;283;42297;-29
2023/04/25 03:42:30;;;;;;;5.70;4.80;;;;;;;;;;107649;285;38819;-29
2023/04/25 03:45:04;;;;;;;6.10;4.90;;;;;;;;;;107512;285;175672;-29
2023/04/25 03:47:39;;;;;;;5.50;4.60;;;;;;;;;;107640;285;42882;-29
2023/04/25 03:50:14;;;;;;;6.10;4.90;;;;;;;;;;107649;283;42336;-29
2023/04/25 03:52:48;;;;;;;5.80;4.70;;;;;;;;;;107532;285;175678;-29
2023/04/25 03:55:24;;;;;;;5.60;5.00;;;;;;;;;;107660;282;39739;-29
2023/04/25 03:58:00;;;;;;;5.90;4.70;;;;;;;;;;107600;284;42841;-29
2023/04/25 04:00:37;;;;;;;5.90;4.60;;;;;;;;;;107653;285;43379;-29
2023/04/25 04:03:12;;;;;;;5.80;4.50;;;;;;;;;;107538;285;175165;-29
2023/04/25 04:05:50;;;;;;;5.50;4.40;;;;;;;;;;107640;285;39728;-29
2023/04/25 04:08:24;;;;;;;5.70;4.50;;;;;;;;;;107610;285;44316;-29
2023/04/25 04:11:01;;;;;;;5.40;4.30;;;;;;;;;;107653;285;42123;-29
2023/04/25 04:13:35;;;;;;;5.60;4.60;;;;;;;;;;107669;282;38530;-29
2023/04/25 04:16:13;;;;;;;5.40;4.40;;;;;;;;;;107658;282;39748;-29
2023/04/25 04:18:48;;;;;;;5.20;4.20;;;;;;;;;;107651;282;43071;-29
2023/04/25 04:21:23;;;;;;;5.50;4.00;;;;;;;;;;107661;285;42159;-29
2023/04/25 04:23:59;;;;;;;5.20;4.00;;;;;;;;;;107645;285;38905;-29
2023/04/25 04:26:35;;;;;;;5.30;4.10;;;;;;;;;;107647;285;39804;-29
2023/04/25 04:29:20;;;;;;;5.30;4.10;;;;;;;;;;107605;283;42935;-29
2023/04/25 04:31:57;;;;;;;5.50;4.10;;;;;;;;;;107638;285;42190;-29
2023/04/25 04:34:31;;;;;;;4.90;4.00;;;;;;;;;;107631;285;41419;-29
2023/04/25 04:37:07;;;;;;;5.10;3.60;;;;;;;;;;107636;285;39744;-29
2023/04/25 04:39:41;;;;;;;5.90;3.70;;;;;;;;;;107601;285;48769;-29
2023/04/25 04:42:17;;;;;;;5.10;3.80;;;;;;;;;;107649;285;42226;-29
2023/04/25 04:44:52;;;;;;;4.90;3.60;;;;;;;;;;107650;285;38527;-29
2023/04/25 04:47:31;;;;;;;5.10;3.70;;;;;;;;;;107630;283;41155;-29
2023/04/25 04:50:07;;;;;;;5.20;3.60;;;;;;;;;;107505;290;175602;-29
2023/04/25 04:52:41;;;;;;;4.70;3.60;;;;;;;;;;107664;285;42238;-29
2023/04/25 04:55:17;;;;;;;4.90;3.60;;;;;;;;;;107602;277;38824;-29
2023/04/25 04:57:53;;;;;;;4.50;3.40;;;;;;;;;;107518;285;175611;-29
2023/04/25 05:00:27;;;;;;;4.50;3.30;;;;;;;;;;107615;285;48611;-29
2023/04/25 05:03:05;;;;;;;4.50;3.20;;;;;;;;;;107614;282;42171;-29
2023/04/25 05:05:39;;;;;;;4.90;3.20;;;;;;;;;;107640;285;39941;-29
2023/04/25 05:08:14;;;;;;;4.80;3.20;;;;;;;;;;107637;285;39879;-29
2023/04/25 05:10:47;;;;;;;4.80;3.10;;;;;;;;;;107634;283;44082;-29
2023/04/25 05:13:20;;;;;;;4.60;3.30;;;;;;;;;;107643;283;42108;-29
2023/04/25 05:15:54;;;;;;;4.40;3.20;;;;;;;;;;107676;285;39036;-29
2023/04/25 05:18:30;;;;;;;4.70;3.20;;;;;;;;;;107612;285;39676;-29
2023/04/25 05:21:03;;;;;;;4.80;3.10;;;;;;;;;;107658;283;50372;-29
2023/04/25 05:23:39;;;;;;;5.00;3.30;;;;;;;;;;107628;285;42179;-29
2023/04/25 05:26:14;;;;;;;4.80;2.90;;;;;;;;;;107644;285;39716;-29
2023/04/25 05:28:48;;;;;;;5.10;2.90;;;;;;;;;;107601;283;39836;-29
2023/04/25 05:31:22;;;;;;;5.10;3.20;;;;;;;;;;107602;285;51447;-29
2023/04/25 05:33:56;;;;;;;4.50;2.90;;;;;;;;;;107604;285;42142;-29
2023/04/25 05:36:32;;;;;;;4.70;2.90;;;;;;;;;;107661;283;38772;-29
2023/04/25 05:39:06;;;;;;;4.30;2.90;;;;;;;;;;107616;285;39545;-29
2023/04/25 05:41:40;;;;;;;4.70;3.00;;;;;;;;;;107642;285;50980;-29
2023/04/25 05:44:16;;;;;;;4.50;2.90;;;;;;;;;;107518;283;175310;-29
2023/04/25 05:46:55;;;;;;;4.30;2.60;;;;;;;;;;107644;285;38898;-29
2023/04/25 05:49:31;;;;;;;5.30;2.90;;;;;;;;;;107601;283;39697;-29
2023/04/25 05:52:07;;;;;;;4.50;2.80;;;;;;;;;;107641;285;42926;-29
2023/04/25 05:54:45;;;;;;;4.60;2.90;;;;;;;;;;107609;285;42344;-29
2023/04/25 05:57:27;;;;;;;4.20;2.70;;;;;;;;;;107640;283;38778;-29
2023/04/25 06:00:08;;;;;;;4.30;2.60;;;;;;;;;;107604;285;39833;-29
2023/04/25 06:02:45;;;;;;;4.30;2.80;;;;;;;;;;107613;290;43998;-29
2023/04/25 06:05:20;;;;;;;4.10;2.60;;;;;;;;;;107652;283;42186;-29
2023/04/25 06:07:55;;;;;;;4.40;2.80;;;;;;;;;;107650;283;38898;-29
2023/04/25 06:10:28;;;;;;;4.30;2.60;;;;;;;;;;107620;285;39785;-29
2023/04/25 06:13:06;;;;;;;4.90;2.80;;;;;;;;;;107540;283;175244;-29
2023/04/25 06:15:43;;;;;;;4.30;2.50;;;;;;;;;;107638;285;41852;-29
2023/04/25 06:18:18;;;;;;;4.30;2.90;;;;;;;;;;107633;285;39968;-29
2023/04/25 06:20:57;;;;;;;4.30;2.90;;;;;;;;;;107604;285;40759;-29
2023/04/25 06:23:33;;;;;;;4.60;2.60;;;;;;;;;;107633;283;42947;-29
2023/04/25 06:26:08;;;;;;;4.00;2.80;;;;;;;;;;107612;285;42336;-29
2023/04/25 06:28:44;;;;;;;4.10;2.50;;;;;;;;;;107652;285;38916;-29
2023/04/25 06:31:20;;;;;;;4.20;2.70;;;;;;;;;;107610;285;39690;-29
2023/04/25 06:33:55;;;;;;;4.20;2.60;;;;;;;;;;107643;285;42889;-29
2023/04/25 06:36:34;;;;;;;4.80;2.80;;;;;;;;;;107633;283;42154;-29
2023/04/25 06:39:08;;;;;;;4.20;2.70;;;;;;;;;;107650;283;39543;-29
2023/04/25 06:41:45;;;;;;;4.00;2.60;;;;;;;;;;107530;285;192964;-29
2023/04/25 06:44:18;;;;;;;4.30;2.60;;;;;;;;;;107604;285;42907;-29
2023/04/25 06:46:53;;;;;;;4.10;2.50;;;;;;;;;;107606;285;42173;-29
2023/04/25 06:49:26;;;;;;;4.70;2.70;;;;;;;;;;107654;283;38539;-29
2023/04/25 06:52:01;;;;;;;4.30;2.70;;;;;;;;;;107612;283;39759;-29
2023/04/25 06:54:38;;;;;;;4.10;2.80;;;;;;;;;;107487;285;42916;-29
2023/04/25 06:57:16;;;;;;;3.90;2.70;;;;;;;;;;107655;285;42177;-29
2023/04/25 06:59:51;;;;;;;4.10;2.70;;;;;;;;;;107623;283;38780;-29
2023/04/25 07:02:28;;;;;;;4.00;2.60;;;;;;;;;;107554;283;38774;-29
2023/04/25 07:05:05;;;;;;;4.20;2.50;;;;;;;;;;107575;285;42720;-29
2023/04/25 07:07:42;;;;;;;4.20;2.60;;;;;;;;;;107657;285;42129;-29
2023/04/25 07:10:21;;;;;;;4.20;2.60;;;;;;;;;;107610;283;38906;-29
2023/04/25 07:12:58;;;;;;;4.30;2.50;;;;;;;;;;107592;285;39808;-29
2023/04/25 07:15:35;;;;;;;4.20;2.60;;;;;;;;;;107623;285;43301;-29
2023/04/25 07:18:08;;;;;;;4.00;2.50;;;;;;;;;;107618;285;42300;-29
2023/04/25 07:20:46;;;;;;;4.30;2.50;;;;;;;;;;107677;285;38975;-29
2023/04/25 07:23:22;;;;;;;4.00;2.40;;;;;;;;;;107584;277;39951;-29
2023/04/25 07:25:57;;;;;;;4.00;2.40;;;;;;;;;;107620;285;43048;-29
2023/04/25 07:28:33;;;;;;;3.70;2.20;;;;;;;;;;107616;290;42349;-29
2023/04/25 07:31:08;;;;;;;4.20;2.30;;;;;;;;;;107667;283;38772;-29
2023/04/25 07:33:44;;;;;;;3.90;2.20;;;;;;;;;;107720;283;45630;-29
2023/04/25 07:36:20;;;;;;;4.10;2.30;;;;;;;;;;107601;285;43096;-29
2023/04/25 07:38:56;;;;;;;3.70;2.20;;;;;;;;;;107616;285;43321;-29
2023/04/25 07:41:34;;;;;;;3.60;2.20;;;;;;;;;;107645;285;38845;-29
2023/04/25 07:44:10;;;;;;;3.60;2.20;;;;;;;;;;107624;282;46035;-29
2023/04/25 07:46:46;;;;;;;3.60;2.30;;;;;;;;;;107536;285;175620;-29
2023/04/25 07:49:25;;;;;;;3.50;2.10;;;;;;;;;;107618;285;42176;-29
2023/04/25 07:52:00;;;;;;;3.50;2.00;;;;;;;;;;107616;285;38585;-29
2023/04/25 07:54:37;;;;;;;4.00;2.00;;;;;;;;;;107620;289;40903;-29
2023/04/25 07:57:14;;;;;;;3.70;2.00;;;;;;;;;;107608;285;44188;-29
2023/04/25 07:59:52;;;;;;;3.80;2.00;;;;;;;;;;107659;285;42158;-29
2023/04/25 08:02:28;;;;;;;3.60;1.90;;;;;;;;;;107610;277;39023;-29
2023/04/25 08:05:05;;;;;;;3.70;2.10;;;;;;;;;;107652;285;41077;-29
2023/04/25 08:07:41;;;;;;;3.30;1.80;;;;;;;;;;107505;277;177387;-29
2023/04/25 08:10:16;;;;;;;3.50;2.00;;;;;;;;;;107655;285;43256;-29
2023/04/25 08:12:53;;;;;;;3.50;2.10;;;;;;;;;;107632;285;39902;-29
2023/04/25 08:15:31;;;;;;;4.40;2.10;;;;;;;;;;107620;285;39715;-29
2023/04/25 08:18:07;;;;;;;3.50;2.00;;;;;;;;;;107572;277;43078;-29
2023/04/25 08:20:44;;;;;;;3.50;2.10;;;;;;;;;;107513;283;175244;-29
2023/04/25 08:23:22;;;;;;;3.70;2.10;;;;;;;;;;107600;285;39963;-29
2023/04/25 08:25:57;;;;;;;4.40;2.30;;;;;;;;;;107637;286;40909;-29
2023/04/25 08:28:31;;;;;;;3.40;2.10;;;;;;;;;;107550;285;44128;-31
2023/04/25 08:31:05;;;;;;;3.80;2.00;;;;;;;;;;107612;285;42168;-31
2023/04/25 08:33:39;;;;;;;4.00;2.20;;;;;;;;;;107554;283;39956;-30
2023/04/25 08:36:14;;;;;;;3.90;2.30;;;;;;;;;;107596;285;39683;-30
2023/04/25 08:39:05;;;;;;;3.50;1.90;;;;;;;;;;107543;285;43287;-30
2023/04/25 08:41:42;;;;;;;3.40;1.90;;;;;;;;;;107541;285;42161;-30
2023/04/25 08:44:20;;;;;;;3.50;2.10;;;;;;;;;;107559;285;39934;-30
2023/04/25 08:46:55;;;;;;;3.50;2.10;;;;;;;;;;107612;285;39505;-30
2023/04/25 08:49:33;;;;;;;4.00;2.20;;;;;;;;;;107607;285;42926;-30
2023/04/25 08:52:10;;;;;;;3.40;2.10;;;;;;;;;;107611;285;42265;-30
2023/04/25 08:54:52;;;;;;;3.70;2.00;;;;;;;;;;107612;290;38799;-30
2023/04/25 08:57:30;;;;;;;3.00;1.90;;;;;;;;;;107652;285;40296;-31
2023/04/25 09:00:08;;;;;;;3.60;2.10;;;;;;;;;;107651;277;42873;-31
2023/04/25 09:02:44;;;;;;;3.40;2.00;;;;;;;;;;107634;285;42207;-31
2023/04/25 09:05:21;;;;;;;3.70;2.00;;;;;;;;;;107618;285;38792;-31
2023/04/25 09:07:56;;;;;;;3.60;2.20;;;;;;;;;;107647;285;40863;-31
2023/04/25 09:10:33;;;;;;;3.40;1.90;;;;;;;;;;107633;285;42930;-30
2023/04/25 09:13:12;;;;;;;3.80;2.00;;;;;;;;;;107649;285;42196;-30
2023/04/25 09:15:52;;;;;;;3.30;2.00;;;;;;;;;;107763;285;45272;-30
2023/04/25 09:18:31;;;;;;;3.60;2.10;;;;;;;;;;107628;285;40917;-31
2023/04/25 09:21:11;;;;;;;3.10;1.80;;;;;;;;;;107653;285;43973;-31
2023/04/25 09:23:51;;;;;;;3.20;1.90;;;;;;;;;;107564;286;43378;-31
2023/04/25 09:26:28;;;;;;;3.50;2.20;;;;;;;;;;107619;285;38790;-31
2023/04/25 09:29:10;;;;;;;3.50;2.20;;;;;;;;;;107634;285;40812;-31
2023/04/25 09:31:44;;;;;;;3.40;2.00;;;;;;;;;;107642;285;42935;-31
2023/04/25 09:34:18;;;;;;;3.50;2.10;;;;;;;;;;107602;285;42687;-31
2023/04/25 09:36:58;;;;;;;5.10;2.20;;;;;;;;;;107561;286;39849;-31
2023/04/25 09:39:35;;;;;;;3.40;2.10;;;;;;;;;;107090;286;602228;-31
2023/04/25 09:42:11;;;;;;;3.30;2.00;;;;;;;;;;107552;283;42801;-31
2023/04/25 09:44:48;;;;;;;3.70;2.10;;;;;;;;;;107528;285;42176;-31
2023/04/25 09:47:28;;;;;;;3.60;2.20;;;;;;;;;;107559;286;38772;-31
2023/04/25 09:50:02;;;;;;;3.70;2.30;;;;;;;;;;107560;278;40706;-31
2023/04/25 09:52:38;;;;;;;3.60;2.00;;;;;;;;;;107550;278;44079;-31
2023/04/25 09:55:12;;;;;;;3.60;2.30;;;;;;;;;;107537;283;42183;-31
2023/04/25 09:57:51;;;;;;;3.70;2.40;;;;;;;;;;107585;285;38823;-29
2023/04/25 10:00:26;;;;;;;3.90;2.30;;;;;;;;;;107547;283;39706;-30
2023/04/25 10:03:05;;;;;;;3.30;2.20;;;;;;;;;;107612;283;42915;-31
2023/04/25 10:05:40;;;;;;;3.70;2.40;;;;;;;;;;107573;283;42163;-30
2023/04/25 10:08:19;;;;;;;3.40;2.40;;;;;;;;;;107565;277;39389;-30
2023/04/25 10:10:56;;;;;;;4.30;2.50;;;;;;;;;;107602;283;39759;-30
2023/04/25 10:13:31;;;;;;;3.70;2.40;;;;;;;;;;107581;277;44242;-31
2023/04/25 10:16:07;;;;;;;3.60;2.50;;;;;;;;;;107561;283;42146;-29
2023/04/25 10:18:43;;;;;;;3.80;2.70;;;;;;;;;;107552;285;38878;-30
2023/04/25 10:21:18;;;;;;;3.80;2.50;;;;;;;;;;107597;285;39454;-30
2023/04/25 10:23:56;;;;;;;3.70;2.60;;;;;;;;;;107664;281;43334;-30
2023/04/25 10:26:33;;;;;;;3.70;2.60;;;;;;;;;;107586;285;42863;-30
2023/04/25 10:29:09;;;;;;;3.60;2.60;;;;;;;;;;107621;285;40017;-30
2023/04/25 10:31:52;;;;;;;3.70;2.50;;;;;;;;;;107626;282;41911;-31
2023/04/25 10:34:46;;;;;;;4.10;2.80;;;;;;;;;;107625;277;42896;-31
2023/04/25 10:37:24;;;;;;;4.20;2.70;;;;;;;;;;107593;285;42132;-31
2023/04/25 10:40:00;;;;;;;4.30;2.70;;;;;;;;;;107578;283;38773;-30
2023/04/25 10:42:36;;;;;;;3.90;2.70;;;;;;;;;;107597;286;39724;-30
2023/04/25 10:45:12;;;;;;;4.10;2.90;;;;;;;;;;107588;286;44047;-30
2023/04/25 10:47:50;;;;;;;3.80;2.70;;;;;;;;;;107604;283;43307;-30
2023/04/25 10:50:25;;;;;;;3.80;2.80;;;;;;;;;;107475;283;192737;-30
2023/04/25 10:53:16;;;;;;;4.30;3.10;;;;;;;;;;107486;285;175578;-31
2023/04/25 10:55:59;;;;;;;3.80;2.90;;;;;;;;;;107564;285;42958;-31
2023/04/25 10:58:36;;;;;;;3.90;3.00;;;;;;;;;;107481;283;196123;-31
2023/04/25 11:01:13;;;;;;;4.30;3.10;;;;;;;;;;107573;283;39234;-31
2023/04/25 11:03:50;;;;;;;3.80;3.10;;;;;;;;;;107566;285;39865;-31
2023/04/25 11:06:33;;;;;;;3.80;2.70;;;;;;;;;;107546;285;42953;-31
2023/04/25 11:09:13;;;;;;;3.80;2.80;;;;;;;;;;107577;283;42143;-31
2023/04/25 11:11:58;;;;;;;4.90;2.90;;;;;;;;;;107569;283;38968;-30
2023/04/25 11:14:34;;;;;;;3.70;3.00;;;;;;;;;;107581;285;39802;-30
2023/04/25 11:17:10;;;;;;;4.10;3.00;;;;;;;;;;107561;283;43057;-30
2023/04/25 11:19:45;;;;;;;4.20;2.90;;;;;;;;;;107580;290;43250;-30
2023/04/25 11:22:19;;;;;;;4.00;3.30;;;;;;;;;;107569;283;40091;-30
2023/04/25 11:24:55;;;;;;;4.40;3.20;;;;;;;;;;107573;285;39452;-30
2023/04/25 11:27:30;;;;;;;4.30;3.00;;;;;;;;;;107537;283;42968;-31
2023/04/25 11:30:16;;;;;;;4.10;3.10;;;;;;;;;;107590;287;42033;-31
2023/04/25 11:32:50;;;;;;;4.10;2.90;;;;;;;;;;107588;278;38819;-31
2023/04/25 11:35:25;;;;;;;5.00;3.20;;;;;;;;;;107583;283;39504;-31
2023/04/25 11:38:00;;;;;;;4.10;3.10;;;;;;;;;;107580;285;44068;-31
2023/04/25 11:40:34;;;;;;;4.10;3.00;;;;;;;;;;107631;285;42369;-31
2023/04/25 11:43:08;;;;;;;4.00;3.00;;;;;;;;;;107687;285;39847;-31
2023/04/25 11:45:48;;;;;;;4.00;3.10;;;;;;;;;;107629;286;40727;-31
2023/04/25 11:48:23;;;;;;;4.10;3.10;;;;;;;;;;106969;285;896021;-31
2023/04/25 11:51:01;;;;;;;3.80;3.00;;;;;;;;;;107656;285;43253;-31
2023/04/25 11:53:35;;;;;;;4.30;2.90;;;;;;;;;;107623;285;39931;-31
2023/04/25 11:56:13;;;;;;;4.00;3.10;;;;;;;;;;107626;285;40764;-31
2023/04/25 11:59:01;;;;;;;3.70;2.80;;;;;;;;;;107624;285;44102;-31
2023/04/25 12:01:37;;;;;;;3.90;2.90;;;;;;;;;;107621;285;42614;-31
2023/04/25 12:04:20;;;;;;;3.70;2.80;;;;;;;;;;107608;285;39934;-31
2023/04/25 12:07:00;;;;;;;5.00;3.30;;;;;;;;;;107605;285;39519;-30
2023/04/25 12:09:36;;;;;;;4.80;3.70;;;;;;;;;;107638;285;49167;-30
2023/04/25 12:12:13;;;;;;;4.30;3.60;;;;;;;;;;107636;285;42423;-30
2023/04/25 12:14:52;;;;;;;4.50;3.30;;;;;;;;;;107618;285;38805;-30
2023/04/25 12:17:29;;;;;;;4.60;3.60;;;;;;;;;;107588;285;39737;-30
2023/04/25 12:20:11;;;;;;;4.70;3.50;;;;;;;;;;107635;285;43039;-30
2023/04/25 12:22:52;;;;;;;5.10;3.50;;;;;;;;;;107618;285;42128;-30
2023/04/25 12:25:41;;;;;;;5.30;3.60;;;;;;;;;;107613;282;39033;-30
2023/04/25 12:28:21;;;;;;;4.20;2.90;;;;;;;;;;107603;283;39971;-30
2023/04/25 12:31:02;;;;;;;4.10;3.00;;;;;;;;;;107607;277;43067;-31
2023/04/25 12:33:39;;;;;;;4.20;3.00;;;;;;;;;;107642;283;42298;-30
2023/04/25 12:36:14;;;;;;;4.20;2.90;;;;;;;;;;107594;286;38835;-31
2023/04/25 12:38:48;;;;;;;4.00;2.80;;;;;;;;;;107504;286;39684;-31
2023/04/25 12:41:22;;;;;;;4.60;3.30;;;;;;;;;;107525;286;42922;-31
2023/04/25 12:43:57;;;;;;;4.60;3.50;;;;;;;;;;107387;287;43834;-31
2023/04/25 12:46:32;;;;;;;4.80;3.30;;;;;;;;;;107544;283;38791;-31
2023/04/25 12:49:08;;;;;;;6.70;3.60;;;;;;;;;;107524;284;39486;-32
2023/04/25 12:51:53;;;;;;;5.80;3.30;;;;;;;;;;107440;285;43062;-32
2023/04/25 12:54:27;;;;;;;4.60;3.40;;;;;;;;;;107576;283;43088;-32
2023/04/25 12:57:02;;;;;;;4.80;2.80;;;;;;;;;;107583;283;39679;-32
2023/04/25 12:59:36;;;;;;;4.90;3.50;;;;;;;;;;107561;284;39729;-34
2023/04/25 13:02:11;;;;;;;4.30;2.80;;;;;;;;;;107543;285;43069;-33
2023/04/25 13:04:47;;;;;;;3.90;2.60;;;;;;;;;;107537;283;43339;-34
2023/04/25 13:07:23;;;;;;;3.80;2.50;;;;;;;;;;107611;285;38827;-34
2023/04/25 13:10:00;;;;;;;4.70;2.50;;;;;;;;;;107608;277;39984;-34
2023/04/25 13:12:35;;;;;;;4.40;2.70;;;;;;;;;;107579;284;42920;-33
2023/04/25 13:15:12;;;;;;;4.10;2.40;;;;;;;;;;107613;285;42239;-33
2023/04/25 13:17:48;;;;;;;4.20;2.50;;;;;;;;;;107586;283;38819;-33
2023/04/25 13:20:25;;;;;;;4.30;2.40;;;;;;;;;;107577;285;39704;-32
2023/04/25 13:22:58;;;;;;;5.20;2.40;;;;;;;;;;107612;285;43091;-32
2023/04/25 13:25:36;;;;;;;4.40;2.70;;;;;;;;;;107606;283;43627;-33
2023/04/25 13:28:12;;;;;;;3.90;2.20;;;;;;;;;;107579;285;38783;-33
2023/04/25 13:30:48;;;;;;;4.10;2.40;;;;;;;;;;107524;283;39515;-33
2023/04/25 13:33:26;;;;;;;3.60;2.20;;;;;;;;;;107596;286;42804;-33
2023/04/25 13:36:05;;;;;;;3.50;2.30;;;;;;;;;;107550;285;43337;-33
2023/04/25 13:38:43;;;;;;;3.80;2.40;;;;;;;;;;107615;285;39855;-33
2023/04/25 13:41:19;;;;;;;3.10;2.10;;;;;;;;;;107684;283;45361;-33
2023/04/25 13:43:57;;;;;;;4.00;2.30;;;;;;;;;;107550;285;44079;-33
2023/04/25 13:46:33;;;;;;;3.60;2.40;;;;;;;;;;107599;284;42189;-33
2023/04/25 13:49:22;;;;;;;3.70;2.40;;;;;;;;;;107588;285;38814;-33
2023/04/25 13:52:00;;;;;;;3.40;2.20;;;;;;;;;;107557;285;39862;-33
2023/04/25 13:54:37;;;;;;;3.30;2.10;;;;;;;;;;107605;285;43062;-33
2023/04/25 13:57:14;;;;;;;3.60;2.30;;;;;;;;;;107648;285;42334;-33
2023/04/25 13:59:52;;;;;;;3.50;2.20;;;;;;;;;;107580;277;39950;-33
2023/04/25 14:02:29;;;;;;;3.30;2.10;;;;;;;;;;107615;284;39751;-33
2023/04/25 14:05:06;;;;;;;3.60;2.20;;;;;;;;;;107601;283;43292;-33
2023/04/25 14:07:41;;;;;;;3.40;2.20;;;;;;;;;;107637;285;41927;-33
2023/04/25 14:10:19;;;;;;;3.20;2.20;;;;;;;;;;107571;285;40010;-33
2023/04/25 14:12:56;;;;;;;3.40;2.10;;;;;;;;;;107610;285;39714;-33
2023/04/25 14:15:32;;;;;;;3.40;2.20;;;;;;;;;;107596;285;42895;-33
2023/04/25 14:18:08;;;;;;;3.20;2.10;;;;;;;;;;107584;285;42099;-33
2023/04/25 14:20:44;;;;;;;3.40;2.10;;;;;;;;;;107593;283;39060;-33
2023/04/25 14:23:20;;;;;;;3.60;2.10;;;;;;;;;;107604;285;39695;-33
2023/04/25 14:25:56;;;;;;;2.90;2.00;;;;;;;;;;107552;285;42947;-33
2023/04/25 14:28:34;;;;;;;3.40;2.20;;;;;;;;;;107617;285;42243;-33
2023/04/25 14:31:09;;;;;;;3.30;2.20;;;;;;;;;;107563;283;39037;-33
2023/04/25 14:33:45;;;;;;;3.50;2.30;;;;;;;;;;107601;285;39719;-33
2023/04/25 14:36:21;;;;;;;3.90;2.40;;;;;;;;;;107576;277;42987;-33
2023/04/25 14:38:56;;;;;;;3.70;2.40;;;;;;;;;;107641;285;42114;-33
2023/04/25 14:41:31;;;;;;;3.60;2.20;;;;;;;;;;107571;277;38808;-33
2023/04/25 14:44:06;;;;;;;3.70;2.30;;;;;;;;;;107591;284;40740;-33
2023/04/25 14:46:42;;;;;;;3.50;2.40;;;;;;;;;;107633;285;43088;-33
2023/04/25 14:49:17;;;;;;;3.60;2.20;;;;;;;;;;107624;285;42199;-33
2023/04/25 14:51:53;;;;;;;3.70;2.30;;;;;;;;;;107600;285;38794;-33
2023/04/25 14:54:27;;;;;;;4.20;2.50;;;;;;;;;;107594;284;39675;-33
2023/04/25 14:57:02;;;;;;;3.60;2.30;;;;;;;;;;107620;277;43172;-33
2023/04/25 14:59:36;;;;;;;3.60;2.20;;;;;;;;;;107607;285;42135;-33
2023/04/25 15:02:11;;;;;;;3.70;2.20;;;;;;;;;;107534;285;38554;-33
2023/04/25 15:04:46;;;;;;;3.50;2.20;;;;;;;;;;107621;282;40901;-33
2023/04/25 15:07:21;;;;;;;3.70;2.10;;;;;;;;;;107592;285;44054;-33
2023/04/25 15:09:56;;;;;;;3.60;2.20;;;;;;;;;;107614;285;43366;-33
2023/04/25 15:12:32;;;;;;;3.80;2.40;;;;;;;;;;107563;283;40231;-33
2023/04/25 15:15:12;;;;;;;3.30;2.10;;;;;;;;;;107558;277;39746;-33
2023/04/25 15:17:58;;;;;;;3.60;2.30;;;;;;;;;;107610;285;44241;-33
2023/04/25 15:20:33;;;;;;;4.00;2.40;;;;;;;;;;107635;284;43313;-33
2023/04/25 15:23:08;;;;;;;3.40;2.00;;;;;;;;;;107602;284;39178;-33
2023/04/25 15:25:46;;;;;;;3.50;2.20;;;;;;;;;;107598;282;39742;-33
2023/04/25 15:28:24;;;;;;;4.00;2.30;;;;;;;;;;107630;282;44089;-33
2023/04/25 15:31:00;;;;;;;3.70;2.20;;;;;;;;;;107612;284;42291;-33
2023/04/25 15:33:39;;;;;;;3.80;2.20;;;;;;;;;;107580;285;45744;-33
2023/04/25 15:36:18;;;;;;;3.50;2.20;;;;;;;;;;107565;282;40885;-33
2023/04/25 15:38:55;;;;;;;3.70;2.20;;;;;;;;;;107578;277;42968;-33